sensor_id;sensor_type;location;lat;lon;timestamp;P1;durP1;ratioP1;P2;durP2;ratioP2
72194;SDS011;60095;50.180;9.032;2023-02-15T00:01:20;13.15;;;11.90;;
72194;SDS011;60095;50.180;9.032;2023-02-15T00:03:47;14.70;;;13.20;;
72194;SDS011;60095;50.180;9.032;2023-02-15T00:06:14;16.40;;;13.40;;
72194;SDS011;60095;50.180;9.032;2023-02-15T00:08:41;12.82;;;9.82;;
72194;SDS011;60095;50.180;9.032;2023-02-15T00:11:07;12.02;;;9.68;;
72194;SDS011;60095;50.180;9.032;2023-02-15T00:13:34;13.90;;;10.20;;
72194;SDS011;60095;50.180;9.032;2023-02-15T00:16:01;16.67;;;12.07;;
72194;SDS011;60095;50.180;9.032;2023-02-15T00:18:28;12.43;;;10.73;;
72194;SDS011;60095;50.180;9.032;2023-02-15T00:20:54;24.85;;;13.48;;
72194;SDS011;60095;50.180;9.032;2023-02-15T00:23:22;14.25;;;9.40;;
72194;SDS011;60095;50.180;9.032;2023-02-15T00:25:48;12.10;;;11.02;;
72194;SDS011;60095;50.180;9.032;2023-02-15T00:28:14;13.65;;;11.13;;
72194;SDS011;60095;50.180;9.032;2023-02-15T00:30:41;13.23;;;11.27;;
72194;SDS011;60095;50.180;9.032;2023-02-15T00:33:07;20.15;;;12.63;;
72194;SDS011;60095;50.180;9.032;2023-02-15T00:35:33;13.93;;;12.45;;
72194;SDS011;60095;50.180;9.032;2023-02-15T00:38:00;13.13;;;11.45;;
72194;SDS011;60095;50.180;9.032;2023-02-15T00:40:27;17.88;;;13.13;;
72194;SDS011;60095;50.180;9.032;2023-02-15T00:42:53;14.65;;;12.48;;
72194;SDS011;60095;50.180;9.032;2023-02-15T00:45:20;18.85;;;14.30;;
72194;SDS011;60095;50.180;9.032;2023-02-15T00:47:46;15.00;;;13.10;;
72194;SDS011;60095;50.180;9.032;2023-02-15T00:50:13;12.70;;;11.38;;
72194;SDS011;60095;50.180;9.032;2023-02-15T00:52:39;20.70;;;12.05;;
72194;SDS011;60095;50.180;9.032;2023-02-15T00:55:06;14.82;;;13.30;;
72194;SDS011;60095;50.180;9.032;2023-02-15T00:57:34;14.55;;;11.52;;
72194;SDS011;60095;50.180;9.032;2023-02-15T01:00:00;15.57;;;13.65;;
72194;SDS011;60095;50.180;9.032;2023-02-15T01:02:26;15.23;;;10.50;;
72194;SDS011;60095;50.180;9.032;2023-02-15T01:04:53;16.35;;;11.30;;
72194;SDS011;60095;50.180;9.032;2023-02-15T01:07:19;16.80;;;13.25;;
72194;SDS011;60095;50.180;9.032;2023-02-15T01:09:45;16.13;;;13.38;;
72194;SDS011;60095;50.180;9.032;2023-02-15T01:12:12;16.23;;;13.45;;
72194;SDS011;60095;50.180;9.032;2023-02-15T01:14:39;12.80;;;11.15;;
72194;SDS011;60095;50.180;9.032;2023-02-15T01:17:06;25.05;;;13.63;;
72194;SDS011;60095;50.180;9.032;2023-02-15T01:19:32;15.55;;;12.95;;
72194;SDS011;60095;50.180;9.032;2023-02-15T01:21:59;12.85;;;11.73;;
72194;SDS011;60095;50.180;9.032;2023-02-15T01:24:25;18.52;;;13.18;;
72194;SDS011;60095;50.180;9.032;2023-02-15T01:26:51;14.13;;;12.32;;
72194;SDS011;60095;50.180;9.032;2023-02-15T01:29:18;16.33;;;12.68;;
72194;SDS011;60095;50.180;9.032;2023-02-15T01:31:45;15.35;;;12.98;;
72194;SDS011;60095;50.180;9.032;2023-02-15T01:34:11;22.05;;;16.38;;
72194;SDS011;60095;50.180;9.032;2023-02-15T01:36:38;18.13;;;15.48;;
72194;SDS011;60095;50.180;9.032;2023-02-15T01:39:04;14.65;;;13.13;;
72194;SDS011;60095;50.180;9.032;2023-02-15T01:41:32;25.40;;;13.27;;
72194;SDS011;60095;50.180;9.032;2023-02-15T01:43:59;12.93;;;11.73;;
72194;SDS011;60095;50.180;9.032;2023-02-15T01:46:27;15.73;;;13.30;;
72194;SDS011;60095;50.180;9.032;2023-02-15T01:48:58;21.13;;;14.40;;
72194;SDS011;60095;50.180;9.032;2023-02-15T01:51:26;15.77;;;14.13;;
72194;SDS011;60095;50.180;9.032;2023-02-15T01:53:53;16.38;;;12.07;;
72194;SDS011;60095;50.180;9.032;2023-02-15T01:56:21;14.32;;;12.18;;
72194;SDS011;60095;50.180;9.032;2023-02-15T01:58:49;18.85;;;14.65;;
72194;SDS011;60095;50.180;9.032;2023-02-15T02:01:17;14.50;;;12.57;;
72194;SDS011;60095;50.180;9.032;2023-02-15T02:03:46;29.38;;;14.52;;
72194;SDS011;60095;50.180;9.032;2023-02-15T02:06:16;18.10;;;11.45;;
72194;SDS011;60095;50.180;9.032;2023-02-15T02:08:43;24.38;;;15.65;;
72194;SDS011;60095;50.180;9.032;2023-02-15T02:11:10;22.67;;;14.98;;
72194;SDS011;60095;50.180;9.032;2023-02-15T02:13:37;18.08;;;13.82;;
72194;SDS011;60095;50.180;9.032;2023-02-15T02:16:04;23.05;;;14.77;;
72194;SDS011;60095;50.180;9.032;2023-02-15T02:18:37;19.15;;;12.80;;
72194;SDS011;60095;50.180;9.032;2023-02-15T02:21:11;13.50;;;12.13;;
72194;SDS011;60095;50.180;9.032;2023-02-15T02:26:36;12.25;;;10.95;;
72194;SDS011;60095;50.180;9.032;2023-02-15T02:32:01;20.23;;;14.70;;
72194;SDS011;60095;50.180;9.032;2023-02-15T02:34:33;18.30;;;13.90;;
72194;SDS011;60095;50.180;9.032;2023-02-15T02:37:03;18.38;;;14.38;;
72194;SDS011;60095;50.180;9.032;2023-02-15T02:39:37;16.45;;;13.13;;
72194;SDS011;60095;50.180;9.032;2023-02-15T02:42:09;25.30;;;15.43;;
72194;SDS011;60095;50.180;9.032;2023-02-15T02:44:39;15.48;;;13.82;;
72194;SDS011;60095;50.180;9.032;2023-02-15T02:47:09;12.90;;;11.60;;
72194;SDS011;60095;50.180;9.032;2023-02-15T02:49:39;13.77;;;12.38;;
72194;SDS011;60095;50.180;9.032;2023-02-15T02:52:07;12.95;;;11.68;;
72194;SDS011;60095;50.180;9.032;2023-02-15T02:54:52;13.93;;;12.07;;
72194;SDS011;60095;50.180;9.032;2023-02-15T02:57:19;11.68;;;10.63;;
72194;SDS011;60095;50.180;9.032;2023-02-15T02:59:47;19.10;;;13.48;;
72194;SDS011;60095;50.180;9.032;2023-02-15T03:02:16;16.42;;;14.27;;
72194;SDS011;60095;50.180;9.032;2023-02-15T03:04:45;19.55;;;15.00;;
72194;SDS011;60095;50.180;9.032;2023-02-15T03:07:14;12.52;;;11.00;;
72194;SDS011;60095;50.180;9.032;2023-02-15T03:09:47;18.17;;;13.37;;
72194;SDS011;60095;50.180;9.032;2023-02-15T03:12:14;19.45;;;15.68;;
72194;SDS011;60095;50.180;9.032;2023-02-15T03:14:41;20.88;;;14.10;;
72194;SDS011;60095;50.180;9.032;2023-02-15T03:17:08;15.43;;;14.05;;
72194;SDS011;60095;50.180;9.032;2023-02-15T03:19:36;21.58;;;15.88;;
72194;SDS011;60095;50.180;9.032;2023-02-15T03:22:04;18.30;;;15.30;;
72194;SDS011;60095;50.180;9.032;2023-02-15T03:24:34;19.95;;;14.75;;
72194;SDS011;60095;50.180;9.032;2023-02-15T03:27:02;25.33;;;14.95;;
72194;SDS011;60095;50.180;9.032;2023-02-15T03:29:30;23.30;;;17.25;;
72194;SDS011;60095;50.180;9.032;2023-02-15T03:31:58;17.27;;;14.70;;
72194;SDS011;60095;50.180;9.032;2023-02-15T03:34:25;21.67;;;14.60;;
72194;SDS011;60095;50.180;9.032;2023-02-15T03:36:52;17.38;;;15.45;;
72194;SDS011;60095;50.180;9.032;2023-02-15T03:39:24;26.65;;;16.13;;
72194;SDS011;60095;50.180;9.032;2023-02-15T03:41:55;29.48;;;14.48;;
72194;SDS011;60095;50.180;9.032;2023-02-15T03:44:24;17.95;;;14.68;;
72194;SDS011;60095;50.180;9.032;2023-02-15T03:46:52;18.60;;;16.60;;
72194;SDS011;60095;50.180;9.032;2023-02-15T03:49:20;23.45;;;16.35;;
72194;SDS011;60095;50.180;9.032;2023-02-15T03:51:48;19.40;;;17.42;;
72194;SDS011;60095;50.180;9.032;2023-02-15T03:54:17;21.83;;;15.45;;
72194;SDS011;60095;50.180;9.032;2023-02-15T03:57:04;18.15;;;15.02;;
72194;SDS011;60095;50.180;9.032;2023-02-15T03:59:50;22.70;;;16.83;;
72194;SDS011;60095;50.180;9.032;2023-02-15T04:02:35;21.47;;;18.47;;
72194;SDS011;60095;50.180;9.032;2023-02-15T04:05:04;17.90;;;15.68;;
72194;SDS011;60095;50.180;9.032;2023-02-15T04:07:30;19.55;;;17.63;;
72194;SDS011;60095;50.180;9.032;2023-02-15T04:09:57;26.35;;;16.35;;
72194;SDS011;60095;50.180;9.032;2023-02-15T04:12:42;23.10;;;20.20;;
72194;SDS011;60095;50.180;9.032;2023-02-15T04:15:11;32.58;;;17.67;;
72194;SDS011;60095;50.180;9.032;2023-02-15T04:17:55;20.25;;;17.10;;
72194;SDS011;60095;50.180;9.032;2023-02-15T04:20:21;17.25;;;15.55;;
72194;SDS011;60095;50.180;9.032;2023-02-15T04:23:05;23.37;;;18.03;;
72194;SDS011;60095;50.180;9.032;2023-02-15T04:25:49;23.55;;;20.55;;
72194;SDS011;60095;50.180;9.032;2023-02-15T04:28:16;21.45;;;18.73;;
72194;SDS011;60095;50.180;9.032;2023-02-15T04:30:43;19.67;;;17.42;;
72194;SDS011;60095;50.180;9.032;2023-02-15T04:33:09;18.77;;;16.50;;
72194;SDS011;60095;50.180;9.032;2023-02-15T04:35:36;19.50;;;17.27;;
72194;SDS011;60095;50.180;9.032;2023-02-15T04:38:02;20.55;;;16.80;;
72194;SDS011;60095;50.180;9.032;2023-02-15T04:40:28;24.23;;;17.67;;
72194;SDS011;60095;50.180;9.032;2023-02-15T04:42:55;18.73;;;16.73;;
72194;SDS011;60095;50.180;9.032;2023-02-15T04:45:22;20.73;;;16.27;;
72194;SDS011;60095;50.180;9.032;2023-02-15T04:47:49;28.20;;;17.30;;
72194;SDS011;60095;50.180;9.032;2023-02-15T04:50:15;28.70;;;20.67;;
72194;SDS011;60095;50.180;9.032;2023-02-15T04:52:41;22.65;;;18.20;;
72194;SDS011;60095;50.180;9.032;2023-02-15T04:55:08;21.48;;;17.17;;
72194;SDS011;60095;50.180;9.032;2023-02-15T04:57:34;35.65;;;18.58;;
72194;SDS011;60095;50.180;9.032;2023-02-15T05:00:00;17.92;;;16.13;;
72194;SDS011;60095;50.180;9.032;2023-02-15T05:02:28;20.10;;;17.88;;
72194;SDS011;60095;50.180;9.032;2023-02-15T05:04:55;28.88;;;18.00;;
72194;SDS011;60095;50.180;9.032;2023-02-15T05:07:21;22.65;;;19.70;;
72194;SDS011;60095;50.180;9.032;2023-02-15T05:09:47;23.38;;;17.92;;
72194;SDS011;60095;50.180;9.032;2023-02-15T05:12:13;22.40;;;15.20;;
72194;SDS011;60095;50.180;9.032;2023-02-15T05:14:40;17.08;;;15.27;;
72194;SDS011;60095;50.180;9.032;2023-02-15T05:17:06;18.58;;;16.58;;
72194;SDS011;60095;50.180;9.032;2023-02-15T05:19:34;28.20;;;16.73;;
72194;SDS011;60095;50.180;9.032;2023-02-15T05:22:00;20.67;;;17.17;;
72194;SDS011;60095;50.180;9.032;2023-02-15T05:24:26;21.85;;;17.08;;
72194;SDS011;60095;50.180;9.032;2023-02-15T05:27:11;19.33;;;16.83;;
72194;SDS011;60095;50.180;9.032;2023-02-15T05:32:21;26.20;;;19.27;;
72194;SDS011;60095;50.180;9.032;2023-02-15T05:34:48;24.67;;;17.98;;
72194;SDS011;60095;50.180;9.032;2023-02-15T05:37:15;18.83;;;16.88;;
72194;SDS011;60095;50.180;9.032;2023-02-15T05:39:41;17.90;;;15.68;;
72194;SDS011;60095;50.180;9.032;2023-02-15T05:42:07;23.00;;;16.65;;
72194;SDS011;60095;50.180;9.032;2023-02-15T05:44:33;28.17;;;16.08;;
72194;SDS011;60095;50.180;9.032;2023-02-15T05:47:00;22.10;;;15.40;;
72194;SDS011;60095;50.180;9.032;2023-02-15T05:49:27;19.92;;;17.85;;
72194;SDS011;60095;50.180;9.032;2023-02-15T05:51:56;27.25;;;16.15;;
72194;SDS011;60095;50.180;9.032;2023-02-15T05:54:22;16.25;;;13.95;;
72194;SDS011;60095;50.180;9.032;2023-02-15T05:56:49;16.13;;;14.45;;
72194;SDS011;60095;50.180;9.032;2023-02-15T05:59:15;21.35;;;15.40;;
72194;SDS011;60095;50.180;9.032;2023-02-15T06:01:41;25.50;;;18.48;;
72194;SDS011;60095;50.180;9.032;2023-02-15T06:04:08;17.23;;;15.00;;
72194;SDS011;60095;50.180;9.032;2023-02-15T06:06:34;25.27;;;16.48;;
72194;SDS011;60095;50.180;9.032;2023-02-15T06:09:02;19.50;;;16.52;;
72194;SDS011;60095;50.180;9.032;2023-02-15T06:11:28;17.75;;;15.90;;
72194;SDS011;60095;50.180;9.032;2023-02-15T06:13:55;18.05;;;16.20;;
72194;SDS011;60095;50.180;9.032;2023-02-15T06:16:21;23.83;;;21.17;;
72194;SDS011;60095;50.180;9.032;2023-02-15T06:18:47;33.90;;;19.90;;
72194;SDS011;60095;50.180;9.032;2023-02-15T06:21:16;21.92;;;18.88;;
72194;SDS011;60095;50.180;9.032;2023-02-15T06:23:42;25.80;;;16.17;;
72194;SDS011;60095;50.180;9.032;2023-02-15T06:26:10;18.63;;;15.98;;
72194;SDS011;60095;50.180;9.032;2023-02-15T06:28:36;24.80;;;19.15;;
72194;SDS011;60095;50.180;9.032;2023-02-15T06:31:03;20.10;;;17.00;;
72194;SDS011;60095;50.180;9.032;2023-02-15T06:33:30;18.15;;;16.15;;
72194;SDS011;60095;50.180;9.032;2023-02-15T06:35:58;24.83;;;19.45;;
72194;SDS011;60095;50.180;9.032;2023-02-15T06:38:25;19.63;;;16.77;;
72194;SDS011;60095;50.180;9.032;2023-02-15T06:40:51;19.42;;;17.52;;
72194;SDS011;60095;50.180;9.032;2023-02-15T06:43:19;21.77;;;19.13;;
72194;SDS011;60095;50.180;9.032;2023-02-15T06:45:45;17.38;;;15.82;;
72194;SDS011;60095;50.180;9.032;2023-02-15T06:48:11;19.23;;;17.20;;
72194;SDS011;60095;50.180;9.032;2023-02-15T06:50:37;21.63;;;15.43;;
72194;SDS011;60095;50.180;9.032;2023-02-15T06:53:04;25.42;;;20.65;;
72194;SDS011;60095;50.180;9.032;2023-02-15T06:55:30;19.58;;;16.33;;
72194;SDS011;60095;50.180;9.032;2023-02-15T06:57:56;21.75;;;16.45;;
72194;SDS011;60095;50.180;9.032;2023-02-15T07:00:24;23.92;;;19.08;;
72194;SDS011;60095;50.180;9.032;2023-02-15T07:02:52;21.25;;;18.45;;
72194;SDS011;60095;50.180;9.032;2023-02-15T07:05:20;27.42;;;17.73;;
72194;SDS011;60095;50.180;9.032;2023-02-15T07:07:46;17.10;;;15.32;;
72194;SDS011;60095;50.180;9.032;2023-02-15T07:10:12;20.48;;;16.65;;
72194;SDS011;60095;50.180;9.032;2023-02-15T07:12:39;15.82;;;14.30;;
72194;SDS011;60095;50.180;9.032;2023-02-15T07:15:07;24.50;;;18.15;;
72194;SDS011;60095;50.180;9.032;2023-02-15T07:17:35;29.75;;;20.48;;
72194;SDS011;60095;50.180;9.032;2023-02-15T07:20:02;27.10;;;15.88;;
72194;SDS011;60095;50.180;9.032;2023-02-15T07:22:29;19.08;;;16.90;;
72194;SDS011;60095;50.180;9.032;2023-02-15T07:24:55;24.42;;;16.65;;
72194;SDS011;60095;50.180;9.032;2023-02-15T07:27:22;19.73;;;17.85;;
72194;SDS011;60095;50.180;9.032;2023-02-15T07:29:48;26.15;;;17.10;;
72194;SDS011;60095;50.180;9.032;2023-02-15T07:32:14;17.23;;;15.50;;
72194;SDS011;60095;50.180;9.032;2023-02-15T07:34:42;23.23;;;15.65;;
72194;SDS011;60095;50.180;9.032;2023-02-15T07:37:08;21.67;;;15.70;;
72194;SDS011;60095;50.180;9.032;2023-02-15T07:39:34;24.80;;;18.15;;
72194;SDS011;60095;50.180;9.032;2023-02-15T07:42:01;25.95;;;17.58;;
72194;SDS011;60095;50.180;9.032;2023-02-15T07:44:27;17.42;;;14.93;;
72194;SDS011;60095;50.180;9.032;2023-02-15T07:46:53;29.05;;;18.15;;
72194;SDS011;60095;50.180;9.032;2023-02-15T07:49:20;18.20;;;16.50;;
72194;SDS011;60095;50.180;9.032;2023-02-15T07:51:47;21.35;;;16.20;;
72194;SDS011;60095;50.180;9.032;2023-02-15T07:54:14;25.98;;;14.25;;
72194;SDS011;60095;50.180;9.032;2023-02-15T07:56:40;20.50;;;15.52;;
72194;SDS011;60095;50.180;9.032;2023-02-15T07:59:06;19.60;;;17.67;;
72194;SDS011;60095;50.180;9.032;2023-02-15T08:01:34;20.17;;;17.40;;
72194;SDS011;60095;50.180;9.032;2023-02-15T08:04:01;19.98;;;17.88;;
72194;SDS011;60095;50.180;9.032;2023-02-15T08:06:28;17.50;;;15.48;;
72194;SDS011;60095;50.180;9.032;2023-02-15T08:08:56;21.45;;;16.85;;
72194;SDS011;60095;50.180;9.032;2023-02-15T08:11:23;22.75;;;15.35;;
72194;SDS011;60095;50.180;9.032;2023-02-15T08:13:58;26.13;;;20.75;;
72194;SDS011;60095;50.180;9.032;2023-02-15T08:16:26;23.85;;;16.20;;
72194;SDS011;60095;50.180;9.032;2023-02-15T08:18:52;18.20;;;16.38;;
72194;SDS011;60095;50.180;9.032;2023-02-15T08:21:19;24.70;;;18.85;;
72194;SDS011;60095;50.180;9.032;2023-02-15T08:23:45;19.23;;;17.25;;
72194;SDS011;60095;50.180;9.032;2023-02-15T08:26:13;21.60;;;14.90;;
72194;SDS011;60095;50.180;9.032;2023-02-15T08:28:40;22.38;;;18.05;;
72194;SDS011;60095;50.180;9.032;2023-02-15T08:31:06;39.50;;;21.35;;
72194;SDS011;60095;50.180;9.032;2023-02-15T08:33:33;27.33;;;18.60;;
72194;SDS011;60095;50.180;9.032;2023-02-15T08:36:02;21.20;;;18.50;;
72194;SDS011;60095;50.180;9.032;2023-02-15T08:38:28;20.55;;;17.92;;
72194;SDS011;60095;50.180;9.032;2023-02-15T08:40:55;23.00;;;20.35;;
72194;SDS011;60095;50.180;9.032;2023-02-15T08:43:22;25.73;;;18.85;;
72194;SDS011;60095;50.180;9.032;2023-02-15T08:45:49;24.48;;;21.77;;
72194;SDS011;60095;50.180;9.032;2023-02-15T08:48:15;28.95;;;20.40;;
72194;SDS011;60095;50.180;9.032;2023-02-15T08:50:41;20.92;;;17.15;;
72194;SDS011;60095;50.180;9.032;2023-02-15T08:53:08;19.00;;;17.17;;
72194;SDS011;60095;50.180;9.032;2023-02-15T08:55:34;31.00;;;17.17;;
72194;SDS011;60095;50.180;9.032;2023-02-15T08:58:00;21.38;;;16.35;;
72194;SDS011;60095;50.180;9.032;2023-02-15T09:00:28;27.02;;;19.88;;
72194;SDS011;60095;50.180;9.032;2023-02-15T09:02:54;25.88;;;17.75;;
72194;SDS011;60095;50.180;9.032;2023-02-15T09:05:21;21.45;;;18.50;;
72194;SDS011;60095;50.180;9.032;2023-02-15T09:07:47;30.67;;;18.48;;
72194;SDS011;60095;50.180;9.032;2023-02-15T09:10:13;27.30;;;18.40;;
72194;SDS011;60095;50.180;9.032;2023-02-15T09:12:40;34.75;;;20.92;;
72194;SDS011;60095;50.180;9.032;2023-02-15T09:15:06;19.42;;;17.50;;
72194;SDS011;60095;50.180;9.032;2023-02-15T09:17:34;35.33;;;19.95;;
72194;SDS011;60095;50.180;9.032;2023-02-15T09:20:00;19.52;;;16.67;;
72194;SDS011;60095;50.180;9.032;2023-02-15T09:22:27;19.55;;;16.17;;
72194;SDS011;60095;50.180;9.032;2023-02-15T09:24:55;17.60;;;15.68;;
72194;SDS011;60095;50.180;9.032;2023-02-15T09:27:21;23.98;;;19.65;;
72194;SDS011;60095;50.180;9.032;2023-02-15T09:29:47;25.58;;;17.02;;
72194;SDS011;60095;50.180;9.032;2023-02-15T09:32:14;21.70;;;17.10;;
72194;SDS011;60095;50.180;9.032;2023-02-15T09:34:41;21.83;;;17.50;;
72194;SDS011;60095;50.180;9.032;2023-02-15T09:37:08;19.92;;;17.73;;
72194;SDS011;60095;50.180;9.032;2023-02-15T09:39:34;24.35;;;20.92;;
72194;SDS011;60095;50.180;9.032;2023-02-15T09:42:06;23.23;;;17.77;;
72194;SDS011;60095;50.180;9.032;2023-02-15T09:44:39;30.25;;;19.33;;
72194;SDS011;60095;50.180;9.032;2023-02-15T09:49:36;23.90;;;16.92;;
72194;SDS011;60095;50.180;9.032;2023-02-15T09:52:14;19.20;;;16.92;;
72194;SDS011;60095;50.180;9.032;2023-02-15T09:54:49;26.02;;;20.02;;
72194;SDS011;60095;50.180;9.032;2023-02-15T09:57:19;19.02;;;17.30;;
72194;SDS011;60095;50.180;9.032;2023-02-15T09:59:51;26.23;;;18.60;;
72194;SDS011;60095;50.180;9.032;2023-02-15T10:02:27;21.95;;;19.92;;
72194;SDS011;60095;50.180;9.032;2023-02-15T10:04:59;25.88;;;20.42;;
72194;SDS011;60095;50.180;9.032;2023-02-15T10:07:35;18.63;;;16.25;;
72194;SDS011;60095;50.180;9.032;2023-02-15T10:10:09;22.67;;;18.23;;
72194;SDS011;60095;50.180;9.032;2023-02-15T10:15:12;22.15;;;17.08;;
72194;SDS011;60095;50.180;9.032;2023-02-15T10:20:09;23.17;;;18.92;;
72194;SDS011;60095;50.180;9.032;2023-02-15T10:22:42;25.30;;;19.20;;
72194;SDS011;60095;50.180;9.032;2023-02-15T10:25:18;16.23;;;14.63;;
72194;SDS011;60095;50.180;9.032;2023-02-15T10:27:47;18.63;;;16.67;;
72194;SDS011;60095;50.180;9.032;2023-02-15T10:30:14;23.80;;;20.65;;
72194;SDS011;60095;50.180;9.032;2023-02-15T10:32:42;28.60;;;19.95;;
72194;SDS011;60095;50.180;9.032;2023-02-15T10:35:16;21.13;;;17.67;;
72194;SDS011;60095;50.180;9.032;2023-02-15T10:40:35;19.45;;;17.70;;
72194;SDS011;60095;50.180;9.032;2023-02-15T10:43:13;18.08;;;16.30;;
72194;SDS011;60095;50.180;9.032;2023-02-15T10:45:45;23.30;;;20.00;;
72194;SDS011;60095;50.180;9.032;2023-02-15T10:48:35;27.65;;;20.10;;
72194;SDS011;60095;50.180;9.032;2023-02-15T10:54:02;27.05;;;18.45;;
72194;SDS011;60095;50.180;9.032;2023-02-15T10:56:34;21.80;;;18.65;;
72194;SDS011;60095;50.180;9.032;2023-02-15T10:59:21;24.98;;;19.27;;
72194;SDS011;60095;50.180;9.032;2023-02-15T11:01:53;30.52;;;20.13;;
72194;SDS011;60095;50.180;9.032;2023-02-15T11:04:35;20.60;;;18.58;;
72194;SDS011;60095;50.180;9.032;2023-02-15T11:07:06;29.45;;;18.42;;
72194;SDS011;60095;50.180;9.032;2023-02-15T11:09:36;30.77;;;23.88;;
72194;SDS011;60095;50.180;9.032;2023-02-15T11:12:07;31.20;;;20.08;;
72194;SDS011;60095;50.180;9.032;2023-02-15T11:14:37;24.38;;;19.45;;
72194;SDS011;60095;50.180;9.032;2023-02-15T11:17:05;22.88;;;20.55;;
72194;SDS011;60095;50.180;9.032;2023-02-15T11:19:36;25.75;;;19.05;;
72194;SDS011;60095;50.180;9.032;2023-02-15T11:22:05;20.63;;;18.67;;
72194;SDS011;60095;50.180;9.032;2023-02-15T11:24:33;25.77;;;20.98;;
72194;SDS011;60095;50.180;9.032;2023-02-15T11:27:02;19.73;;;17.73;;
72194;SDS011;60095;50.180;9.032;2023-02-15T11:29:32;22.40;;;17.75;;
72194;SDS011;60095;50.180;9.032;2023-02-15T11:31:59;24.33;;;19.33;;
72194;SDS011;60095;50.180;9.032;2023-02-15T11:34:29;25.25;;;19.25;;
72194;SDS011;60095;50.180;9.032;2023-02-15T11:36:58;30.30;;;20.40;;
72194;SDS011;60095;50.180;9.032;2023-02-15T11:39:26;28.95;;;20.20;;
72194;SDS011;60095;50.180;9.032;2023-02-15T11:41:55;25.15;;;19.50;;
72194;SDS011;60095;50.180;9.032;2023-02-15T11:44:23;25.67;;;20.35;;
72194;SDS011;60095;50.180;9.032;2023-02-15T11:46:53;26.40;;;19.33;;
72194;SDS011;60095;50.180;9.032;2023-02-15T11:49:21;23.40;;;20.67;;
72194;SDS011;60095;50.180;9.032;2023-02-15T11:51:48;20.38;;;18.27;;
72194;SDS011;60095;50.180;9.032;2023-02-15T11:54:15;27.48;;;17.80;;
72194;SDS011;60095;50.180;9.032;2023-02-15T11:56:42;26.90;;;19.88;;
72194;SDS011;60095;50.180;9.032;2023-02-15T11:59:09;21.52;;;17.67;;
72194;SDS011;60095;50.180;9.032;2023-02-15T12:01:37;20.20;;;18.40;;
72194;SDS011;60095;50.180;9.032;2023-02-15T12:04:09;20.00;;;17.88;;
72194;SDS011;60095;50.180;9.032;2023-02-15T12:06:37;21.55;;;17.23;;
72194;SDS011;60095;50.180;9.032;2023-02-15T12:09:10;21.05;;;16.65;;
72194;SDS011;60095;50.180;9.032;2023-02-15T12:11:40;19.70;;;16.63;;
72194;SDS011;60095;50.180;9.032;2023-02-15T12:14:07;25.80;;;15.90;;
72194;SDS011;60095;50.180;9.032;2023-02-15T12:16:39;21.02;;;17.45;;
72194;SDS011;60095;50.180;9.032;2023-02-15T12:19:11;18.45;;;16.55;;
72194;SDS011;60095;50.180;9.032;2023-02-15T12:21:39;21.50;;;18.05;;
72194;SDS011;60095;50.180;9.032;2023-02-15T12:24:09;19.50;;;16.60;;
72194;SDS011;60095;50.180;9.032;2023-02-15T12:26:40;23.58;;;17.50;;
72194;SDS011;60095;50.180;9.032;2023-02-15T12:29:07;19.73;;;17.73;;
72194;SDS011;60095;50.180;9.032;2023-02-15T12:31:39;25.67;;;19.50;;
72194;SDS011;60095;50.180;9.032;2023-02-15T12:34:09;17.73;;;15.95;;
72194;SDS011;60095;50.180;9.032;2023-02-15T12:36:42;21.48;;;19.27;;
72194;SDS011;60095;50.180;9.032;2023-02-15T12:39:21;26.55;;;14.82;;
72194;SDS011;60095;50.180;9.032;2023-02-15T12:41:57;21.63;;;15.63;;
72194;SDS011;60095;50.180;9.032;2023-02-15T12:44:25;19.48;;;16.30;;
72194;SDS011;60095;50.180;9.032;2023-02-15T12:46:57;17.23;;;15.70;;
72194;SDS011;60095;50.180;9.032;2023-02-15T12:49:24;18.70;;;16.83;;
72194;SDS011;60095;50.180;9.032;2023-02-15T12:51:52;22.90;;;17.98;;
72194;SDS011;60095;50.180;9.032;2023-02-15T12:59:55;16.67;;;14.75;;
72194;SDS011;60095;50.180;9.032;2023-02-15T13:02:27;21.15;;;18.83;;
72194;SDS011;60095;50.180;9.032;2023-02-15T13:04:54;18.67;;;16.80;;
72194;SDS011;60095;50.180;9.032;2023-02-15T13:07:22;18.80;;;15.85;;
72194;SDS011;60095;50.180;9.032;2023-02-15T13:09:49;26.73;;;17.00;;
72194;SDS011;60095;50.180;9.032;2023-02-15T13:12:17;14.25;;;12.27;;
72194;SDS011;60095;50.180;9.032;2023-02-15T13:14:44;20.38;;;18.25;;
72194;SDS011;60095;50.180;9.032;2023-02-15T13:17:11;17.80;;;16.00;;
72194;SDS011;60095;50.180;9.032;2023-02-15T13:19:39;20.77;;;16.08;;
72194;SDS011;60095;50.180;9.032;2023-02-15T13:22:08;16.73;;;13.98;;
72194;SDS011;60095;50.180;9.032;2023-02-15T13:24:39;24.27;;;17.23;;
72194;SDS011;60095;50.180;9.032;2023-02-15T13:27:07;21.15;;;16.25;;
72194;SDS011;60095;50.180;9.032;2023-02-15T13:29:37;15.73;;;13.57;;
72194;SDS011;60095;50.180;9.032;2023-02-15T13:32:07;17.80;;;13.95;;
72194;SDS011;60095;50.180;9.032;2023-02-15T13:34:34;18.48;;;12.75;;
72194;SDS011;60095;50.180;9.032;2023-02-15T13:37:03;19.63;;;14.50;;
72194;SDS011;60095;50.180;9.032;2023-02-15T13:39:32;17.45;;;13.02;;
72194;SDS011;60095;50.180;9.032;2023-02-15T13:42:04;17.02;;;12.77;;
72194;SDS011;60095;50.180;9.032;2023-02-15T13:44:42;12.48;;;11.02;;
72194;SDS011;60095;50.180;9.032;2023-02-15T13:47:15;21.80;;;15.50;;
72194;SDS011;60095;50.180;9.032;2023-02-15T13:49:47;13.57;;;11.77;;
72194;SDS011;60095;50.180;9.032;2023-02-15T13:52:18;20.33;;;13.90;;
72194;SDS011;60095;50.180;9.032;2023-02-15T13:54:52;17.58;;;14.80;;
72194;SDS011;60095;50.180;9.032;2023-02-15T13:57:24;21.85;;;12.38;;
72194;SDS011;60095;50.180;9.032;2023-02-15T13:59:59;14.18;;;12.45;;
72194;SDS011;60095;50.180;9.032;2023-02-15T14:02:38;19.45;;;13.85;;
72194;SDS011;60095;50.180;9.032;2023-02-15T14:07:56;15.43;;;12.07;;
72194;SDS011;60095;50.180;9.032;2023-02-15T14:13:24;13.65;;;12.30;;
72194;SDS011;60095;50.180;9.032;2023-02-15T14:15:55;16.00;;;12.20;;
72194;SDS011;60095;50.180;9.032;2023-02-15T14:18:25;20.00;;;15.05;;
72194;SDS011;60095;50.180;9.032;2023-02-15T14:20:58;12.73;;;11.55;;
72194;SDS011;60095;50.180;9.032;2023-02-15T14:23:32;13.50;;;12.02;;
72194;SDS011;60095;50.180;9.032;2023-02-15T14:26:02;16.50;;;11.65;;
72194;SDS011;60095;50.180;9.032;2023-02-15T14:28:33;15.80;;;12.57;;
72194;SDS011;60095;50.180;9.032;2023-02-15T14:31:01;16.67;;;12.75;;
72194;SDS011;60095;50.180;9.032;2023-02-15T14:33:30;19.83;;;11.65;;
72194;SDS011;60095;50.180;9.032;2023-02-15T14:35:58;14.50;;;12.55;;
72194;SDS011;60095;50.180;9.032;2023-02-15T14:38:27;15.80;;;12.23;;
72194;SDS011;60095;50.180;9.032;2023-02-15T14:40:57;14.13;;;11.45;;
72194;SDS011;60095;50.180;9.032;2023-02-15T14:43:30;23.02;;;12.95;;
72194;SDS011;60095;50.180;9.032;2023-02-15T14:46:00;17.65;;;12.68;;
72194;SDS011;60095;50.180;9.032;2023-02-15T14:48:28;17.17;;;12.48;;
72194;SDS011;60095;50.180;9.032;2023-02-15T14:50:56;21.70;;;12.27;;
72194;SDS011;60095;50.180;9.032;2023-02-15T14:58:55;16.60;;;14.13;;
72194;SDS011;60095;50.180;9.032;2023-02-15T15:01:26;13.50;;;11.40;;
72194;SDS011;60095;50.180;9.032;2023-02-15T15:03:53;21.95;;;13.00;;
72194;SDS011;60095;50.180;9.032;2023-02-15T15:06:23;16.55;;;13.20;;
72194;SDS011;60095;50.180;9.032;2023-02-15T15:08:50;14.80;;;13.38;;